createdAt,value
2023-03-21T00:03:36.527Z,99395.19
2023-03-21T00:09:38.610Z,99404.06
2023-03-21T00:16:06.460Z,99399.56
2023-03-21T00:22:12.970Z,99395.44
2023-03-21T00:28:14.845Z,99391.38
2023-03-21T00:34:22.453Z,99394.63
2023-03-21T00:40:40.481Z,99392.47
2023-03-21T00:46:54.170Z,99379.00
2023-03-21T00:52:59.155Z,99375.81
2023-03-21T00:59:01.064Z,99371.63
2023-03-21T01:05:03.423Z,99363.50
2023-03-21T01:11:11.265Z,99347.75
2023-03-21T01:17:13.161Z,99355.78
2023-03-21T01:23:16.815Z,99353.22
2023-03-21T01:29:18.995Z,99358.53
2023-03-21T01:35:20.966Z,99352.72
2023-03-21T01:41:44.364Z,99346.28
2023-03-21T01:47:46.562Z,99346.84
2023-03-21T01:53:49.236Z,99349.63
2023-03-21T01:59:54.614Z,99340.53
2023-03-21T02:06:01.429Z,99342.63
2023-03-21T02:12:04.378Z,99332.56
2023-03-21T02:18:29.884Z,99331.84
2023-03-21T02:25:21.359Z,99311.78
2023-03-21T02:32:12.890Z,99312.31
2023-03-21T02:39:08.586Z,99309.22
2023-03-21T02:45:16.974Z,99300.19
2023-03-21T02:51:22.984Z,99293.53
2023-03-21T02:57:31.341Z,99305.66
2023-03-21T03:03:39.548Z,99295.72
2023-03-21T03:10:21.397Z,99298.03
2023-03-21T03:17:00.878Z,99294.19
2023-03-21T03:23:30.313Z,99290.75
2023-03-21T03:29:35.932Z,99285.53
2023-03-21T03:35:38.108Z,99280.19
2023-03-21T03:42:27.576Z,99280.56
2023-03-21T03:48:46.478Z,99271.78
2023-03-21T03:54:51.125Z,99276.56
2023-03-21T04:00:55.929Z,99277.31
2023-03-21T04:06:58.661Z,99269.00
2023-03-21T04:13:00.648Z,99264.38
2023-03-21T04:19:02.533Z,99267.41
2023-03-21T04:25:07.765Z,99268.69
2023-03-21T04:31:24.218Z,99278.66
2023-03-21T04:37:27.990Z,99268.75
2023-03-21T04:43:30.893Z,99270.28
2023-03-21T04:49:33.061Z,99270.31
2023-03-21T04:55:37.020Z,99263.75
2023-03-21T05:01:41.125Z,99266.31
2023-03-21T05:07:43.045Z,99266.69
2023-03-21T05:13:45.110Z,99258.66
2023-03-21T05:19:47.144Z,99256.41
2023-03-21T05:25:49.247Z,99267.59
2023-03-21T05:31:51.613Z,99258.59
2023-03-21T05:37:53.576Z,99262.94
2023-03-21T05:43:55.546Z,99260.66
2023-03-21T05:49:57.456Z,99251.56
2023-03-21T05:55:59.348Z,99257.09
2023-03-21T06:02:01.711Z,99248.53
2023-03-21T06:08:03.955Z,99253.59
2023-03-21T06:14:05.851Z,99246.47
2023-03-21T06:20:09.223Z,99260.03
2023-03-21T06:26:11.172Z,99263.13
2023-03-21T06:32:13.936Z,99259.00
2023-03-21T06:38:15.834Z,99252.66
2023-03-21T06:44:17.765Z,99252.38
2023-03-21T06:50:19.908Z,99256.28
2023-03-21T06:56:21.889Z,99264.34
2023-03-21T07:02:23.818Z,99257.78
2023-03-21T07:08:25.882Z,99266.66
2023-03-21T07:14:27.810Z,99262.44
2023-03-21T07:20:29.700Z,99263.00
2023-03-21T07:26:31.601Z,99271.75
2023-03-21T07:32:35.315Z,99273.00
2023-03-21T07:38:37.216Z,99265.03
2023-03-21T07:44:39.288Z,99272.84
2023-03-21T07:50:41.673Z,99260.47
2023-03-21T07:56:43.652Z,99253.38
2023-03-21T08:02:45.577Z,99258.13
2023-03-21T08:08:47.694Z,99256.38
2023-03-21T08:14:49.633Z,99255.16
2023-03-21T08:20:55.431Z,99255.84
2023-03-21T08:26:58.479Z,99249.22
2023-03-21T08:33:02.013Z,99253.00
2023-03-21T08:39:05.635Z,99257.94
2023-03-21T08:45:09.057Z,99259.97
2023-03-21T08:51:11.141Z,99255.66
2023-03-21T08:57:13.014Z,99253.34
2023-03-21T09:03:14.911Z,99262.66
2023-03-21T09:09:17.022Z,99261.75
2023-03-21T09:15:21.818Z,99251.94
2023-03-21T09:21:24.966Z,99253.84
2023-03-21T09:27:28.171Z,99251.75
2023-03-21T09:33:31.209Z,99247.22
2023-03-21T09:39:33.504Z,99244.34
2023-03-21T09:46:34.124Z,99240.47
2023-03-21T09:53:33.845Z,99244.94
2023-03-21T09:59:40.122Z,99238.41
2023-03-21T10:05:45.712Z,99240.47
2023-03-21T10:11:55.416Z,99231.28
2023-03-21T10:18:07.163Z,99218.00
2023-03-21T10:24:22.451Z,99215.75
2023-03-21T10:30:45.835Z,99205.22
2023-03-21T10:36:47.933Z,99197.81
2023-03-21T10:42:49.821Z,99205.88
2023-03-21T10:48:54.010Z,99197.91
2023-03-21T10:55:21.697Z,99188.47
2023-03-21T11:01:34.515Z,99184.72
2023-03-21T11:07:37.694Z,99185.69
2023-03-21T11:13:45.208Z,99181.06
2023-03-21T11:20:11.359Z,99175.38
2023-03-21T11:26:36.744Z,99175.56
2023-03-21T11:32:39.261Z,99174.84
2023-03-21T11:38:41.224Z,99175.88
2023-03-21T11:44:44.682Z,99169.38
2023-03-21T11:50:50.677Z,99162.06
2023-03-21T11:56:59.978Z,99160.13
2023-03-21T12:03:28.957Z,99150.78
2023-03-21T12:10:06.968Z,99142.19
2023-03-21T12:17:01.750Z,99138.31
2023-03-21T12:23:38.450Z,99132.53
2023-03-21T12:29:46.501Z,99130.16
2023-03-21T12:36:14.216Z,99121.91
2023-03-21T12:42:49.773Z,99123.25
2023-03-21T12:49:17.135Z,99124.81
2023-03-21T12:55:29.366Z,99115.53
2023-03-21T13:01:35.841Z,99113.41
2023-03-21T13:07:41.561Z,99105.19
2023-03-21T13:13:51.747Z,99095.31
2023-03-21T13:20:13.088Z,99085.38
2023-03-21T13:26:16.033Z,99085.00
2023-03-21T13:32:42.975Z,99076.63
2023-03-21T13:38:52.095Z,99078.19
2023-03-21T13:45:02.267Z,99074.75
2023-03-21T13:51:06.470Z,99072.75
2023-03-21T13:57:30.501Z,99071.38
2023-03-21T14:03:35.164Z,99072.09
2023-03-21T14:09:46.266Z,99063.53
2023-03-21T14:16:14.410Z,99061.31
2023-03-21T14:22:16.497Z,99055.88
2023-03-21T14:28:19.293Z,99047.78
2023-03-21T14:34:23.996Z,99044.75
2023-03-21T14:40:28.681Z,99030.75
2023-03-21T14:46:30.654Z,99025.47
2023-03-21T14:52:34.424Z,99038.84
2023-03-21T14:58:43.719Z,99024.75
2023-03-21T15:04:51.350Z,99023.97
2023-03-21T15:11:07.761Z,99020.84
2023-03-21T15:17:10.941Z,99024.59
2023-03-21T15:23:38.814Z,99018.63
2023-03-21T15:29:42.857Z,99003.34
2023-03-21T15:35:55.550Z,99003.34
2023-03-21T15:42:04.229Z,99014.28
2023-03-21T15:48:14.357Z,98999.31
2023-03-21T15:54:26.481Z,98996.84
2023-03-21T16:00:44.138Z,98995.66
2023-03-21T16:07:17.063Z,99001.13
2023-03-21T16:13:19.036Z,99002.22
2023-03-21T16:19:21.249Z,98992.91
2023-03-21T16:25:23.334Z,98963.94
2023-03-21T16:31:30.124Z,98967.22
2023-03-21T16:37:32.195Z,98965.34
2023-03-21T16:43:34.148Z,98960.44
2023-03-21T16:49:36.109Z,98960.22
2023-03-21T16:55:38.925Z,98943.56
2023-03-21T17:01:42.162Z,98933.72
2023-03-21T17:07:44.196Z,98955.25
2023-03-21T17:13:48.130Z,98952.94
2023-03-21T17:19:50.155Z,98958.47
2023-03-21T17:25:52.118Z,98954.38
2023-03-21T17:31:54.073Z,98952.75
2023-03-21T17:37:58.473Z,98950.97
2023-03-21T17:44:01.139Z,98967.03
2023-03-21T17:50:03.134Z,98959.69
2023-03-21T17:56:05.686Z,98964.56
2023-03-21T18:02:07.618Z,98968.47
2023-03-21T18:08:12.991Z,98957.59
2023-03-21T18:14:18.830Z,98957.59
2023-03-21T18:20:44.636Z,98961.69
2023-03-21T18:26:49.027Z,98968.94
2023-03-21T18:32:51.188Z,98974.13
2023-03-21T18:38:53.211Z,98963.97
2023-03-21T18:44:55.134Z,98962.97
2023-03-21T18:50:57.573Z,98971.38
2023-03-21T18:57:34.308Z,98963.59
2023-03-21T19:03:35.241Z,98969.19
2023-03-21T19:10:01.619Z,98979.31
2023-03-21T19:16:02.733Z,98977.06
2023-03-21T19:22:04.947Z,98989.03
2023-03-21T19:28:06.934Z,98985.53
2023-03-21T19:34:08.949Z,98986.97
2023-03-21T19:40:11.295Z,99001.78
2023-03-21T19:46:16.886Z,98991.06
2023-03-21T19:52:20.448Z,98986.88
2023-03-21T19:58:22.840Z,98996.34
2023-03-21T20:04:24.836Z,98999.03
2023-03-21T20:10:27.608Z,98986.69
2023-03-21T20:16:35.091Z,98977.16
2023-03-21T20:23:05.265Z,98978.78
2023-03-21T20:29:28.030Z,98976.06
2023-03-21T20:35:47.929Z,98970.41
2023-03-21T20:41:44.092Z,98960.50
2023-03-21T20:47:46.037Z,98964.84
2023-03-21T20:53:47.949Z,98967.13
2023-03-21T20:59:50.071Z,98966.50
2023-03-21T21:05:52.239Z,98961.16
2023-03-21T21:12:06.514Z,98964.84
2023-03-21T21:18:09.936Z,98958.28
2023-03-21T21:24:14.428Z,98946.13
2023-03-21T21:30:17.572Z,98945.25
2023-03-21T21:36:20.917Z,98934.16
2023-03-21T21:42:22.895Z,98937.22
2023-03-21T21:48:24.879Z,98928.13
2023-03-21T21:54:30.073Z,98913.72
2023-03-21T22:00:32.861Z,98934.75
2023-03-21T22:06:35.104Z,98935.13
2023-03-21T22:12:37.138Z,98929.56
2023-03-21T22:18:39.031Z,98924.81
2023-03-21T22:24:40.903Z,98932.00
2023-03-21T22:30:42.903Z,98921.31
2023-03-21T22:36:47.117Z,98922.09
2023-03-21T22:42:49.050Z,98920.84
2023-03-21T22:48:50.991Z,98919.44
2023-03-21T22:54:53.214Z,98908.09
2023-03-21T23:01:01.680Z,98890.13
2023-03-21T23:07:04.014Z,98908.25
2023-03-21T23:13:06.214Z,98902.63
2023-03-21T23:19:10.404Z,98889.53
2023-03-21T23:25:12.697Z,98899.41
2023-03-21T23:31:18.440Z,98899.56
2023-03-21T23:37:21.231Z,98903.06
2023-03-21T23:43:23.161Z,98902.78
2023-03-21T23:49:26.273Z,98892.06
2023-03-21T23:55:28.212Z,98889.16
